This is the latest recevied weather packets stored in our database for station/object K1WJY. If no packets are shown the sender has not sent any weather packets the latest 10 day(s).
| Time | Temp. | Humidity | Pressure | Rain* | Wind** | Luminosity | Snow |
|---|---|---|---|---|---|---|---|
| 1777722728 | 5° C | 89% | 1016.5 hPa | 0 mm | - | 184 W/m² | - |
| 1777722423 | 6.11° C | 86% | 1016.7 hPa | 0 mm | - | 178 W/m² | - |
| 1777722121 | 6.11° C | 83% | 1016.4 hPa | 0 mm | - | 266 W/m² | - |
| 1777721818 | 6.67° C | 82% | 1016.6 hPa | 0 mm | - | 325 W/m² | - |
| 1777721516 | 6.67° C | 80% | 1016.5 hPa | 0 mm | - | 171 W/m² | - |
| 1777721214 | 6.11° C | 81% | 1016.4 hPa | 0 mm | - | 72 W/m² | - |
| 1777720911 | 5.56° C | 84% | 1016.5 hPa | 0 mm | - | 117 W/m² | - |
| 1777720608 | 5° C | 88% | 1016.3 hPa | 0 mm | - | 170 W/m² | - |
| 1777720306 | 3.89° C | 96% | 1016.4 hPa | 0 mm | - | 153 W/m² | - |
| 1777720003 | 3.33° C | 99% | 1016.1 hPa | 0 mm | - | 134 W/m² | - |
| 1777719700 | 2.78° C | 99% | 1016.1 hPa | 0 mm | - | 46 W/m² | - |
| 1777719398 | 2.22° C | 99% | 1015.9 hPa | 0 mm | - | 56 W/m² | - |
| 1777719095 | 2.22° C | 99% | 1015.6 hPa | 0 mm | - | 51 W/m² | - |
| 1777718792 | 1.67° C | 99% | 1015.7 hPa | 0 mm | - | 43 W/m² | - |
| 1777718489 | 1.67° C | 99% | 1015.6 hPa | 0 mm | - | 44 W/m² | - |
| 1777718187 | 1.11° C | 99% | 1016 hPa | 0 mm | - | 58 W/m² | - |
| 1777717885 | 0.56° C | 99% | 1016 hPa | 0 mm | - | 30 W/m² | - |
| 1777717581 | 0.56° C | 99% | 1016 hPa | 0 mm | - | 39 W/m² | - |
| 1777717278 | 0.56° C | 99% | 1015.9 hPa | 0 mm | - | 39 W/m² | - |
| 1777716976 | 0° C | 99% | 1016.1 hPa | 0 mm | - | 24 W/m² | - |
| 1777716674 | 0° C | 99% | 1016.1 hPa | 0 mm | - | 21 W/m² | - |
| 1777716373 | 0° C | 99% | 1016.1 hPa | 0 mm | - | 19 W/m² | - |
| 1777716070 | -0.56° C | 99% | 1016 hPa | 0 mm | - | 15 W/m² | - |
| 1777715768 | -0.56° C | 99% | 1016.1 hPa | 0 mm | - | 14 W/m² | - |
| 1777715465 | -0.56° C | 99% | 1016.2 hPa | 0 mm | - | 12 W/m² | - |
* Rain latest hour (hover to see other rain measurements)
** Current wind speed in m/s (hover to see current wind gust speed)